Time;durP1;ratioP1;P1;durP2;ratioP2;P2;SDS_P1;SDS_P2;PMS_P1;PMS_P2;Temp;Humidity;BMP_temperature;BMP_pressure;BME280_temperature;BME280_humidity;BME280_pressure;Samples;Min_cycle;Max_cycle;Signal;HPM_P1;HPM_P2
2022/01/22 00:01:26;;;;;;;15.80;7.20;;;3.40;99.90;;;;;;5059110;28;20247;-50
2022/01/22 00:03:52;;;;;;;8.77;6.40;;;3.40;99.90;;;;;;5059157;28;20190;-48
2022/01/22 00:06:17;;;;;;;11.00;6.80;;;3.50;99.90;;;;;;5045149;28;20266;-51
2022/01/22 00:08:43;;;;;;;15.47;6.90;;;3.50;99.90;;;;;;5063750;28;20210;-51
2022/01/22 00:11:09;;;;;;;11.97;6.30;;;3.50;99.90;;;;;;5043648;28;20207;-49
2022/01/22 00:16:18;;;;;;;10.67;6.27;;;3.50;99.90;;;;;;5063197;28;20206;-53
2022/01/22 00:18:44;;;;;;;12.23;6.13;;;3.50;99.90;;;;;;5058798;28;20453;-49
2022/01/22 00:21:10;;;;;;;11.00;6.23;;;3.50;99.90;;;;;;5061030;28;20191;-52
2022/01/22 00:23:38;;;;;;;12.37;6.60;;;3.40;99.90;;;;;;5060526;28;20198;-50
2022/01/22 00:26:04;;;;;;;11.87;6.87;;;3.40;99.90;;;;;;5040546;28;20191;-48
2022/01/22 00:28:30;;;;;;;9.40;6.23;;;3.40;99.90;;;;;;5062377;28;20793;-50
2022/01/22 00:30:56;;;;;;;12.93;6.00;;;3.40;99.90;;;;;;5059688;28;20221;-47
2022/01/22 00:33:21;;;;;;;6.93;5.47;;;3.40;99.90;;;;;;5064225;28;20266;-50
2022/01/22 00:35:47;;;;;;;11.33;5.83;;;3.40;99.90;;;;;;5063995;28;20665;-50
2022/01/22 00:38:14;;;;;;;11.67;5.13;;;3.30;99.90;;;;;;5063302;28;20192;-48
2022/01/22 00:40:41;;;;;;;10.10;6.90;;;3.40;99.90;;;;;;5064445;28;20225;-47
2022/01/22 00:43:06;;;;;;;8.23;6.37;;;3.30;99.90;;;;;;5061251;28;20429;-47
2022/01/22 00:45:32;;;;;;;10.70;6.97;;;3.30;99.90;;;;;;5062427;28;20421;-50
2022/01/22 00:47:58;;;;;;;10.53;6.80;;;3.40;99.90;;;;;;5063171;28;20195;-51
2022/01/22 00:50:24;;;;;;;12.80;6.30;;;3.40;99.90;;;;;;5065221;28;20617;-48
2022/01/22 00:52:51;;;;;;;13.60;7.20;;;3.30;99.90;;;;;;5063530;28;20226;-49
2022/01/22 00:55:18;;;;;;;16.73;7.90;;;3.40;99.90;;;;;;5058667;28;20430;-48
2022/01/22 00:57:44;;;;;;;10.23;6.80;;;3.50;99.90;;;;;;5063074;28;20444;-49
2022/01/22 01:00:12;;;;;;;11.40;7.27;;;3.40;99.90;;;;;;5061314;28;20456;-46
2022/01/22 01:02:39;;;;;;;11.30;7.10;;;3.50;99.90;;;;;;5065420;28;20767;-47
2022/01/22 01:05:07;;;;;;;8.80;6.57;;;3.40;99.90;;;;;;5062373;28;20440;-48
2022/01/22 01:07:32;;;;;;;17.13;8.50;;;3.40;99.90;;;;;;5063331;28;20875;-48
2022/01/22 01:09:58;;;;;;;8.90;6.50;;;3.40;99.90;;;;;;5063892;28;20429;-49
2022/01/22 01:12:24;;;;;;;12.33;7.87;;;3.50;99.90;;;;;;5059174;28;20213;-49
2022/01/22 01:15:10;;;;;;;16.70;6.47;;;3.50;99.90;;;;;;5062458;28;20195;-48
2022/01/22 01:34:01;;;;;;;11.80;7.33;;;3.50;99.90;;;;;;5060183;28;20420;-48
2022/01/22 01:36:27;;;;;;;12.53;7.50;;;3.50;99.90;;;;;;5059875;28;20826;-47
2022/01/22 01:38:57;;;;;;;14.47;6.87;;;3.60;99.90;;;;;;5065403;28;20440;-49
2022/01/22 01:41:39;;;;;;;9.53;7.20;;;3.60;99.90;;;;;;5059168;28;20491;-48
2022/01/22 01:44:06;;;;;;;8.60;6.77;;;3.60;99.90;;;;;;5046693;28;20936;-48
2022/01/22 01:46:33;;;;;;;10.27;7.77;;;3.50;99.90;;;;;;5061912;28;20428;-50
2022/01/22 01:48:59;;;;;;;18.20;8.40;;;3.50;99.90;;;;;;5061853;28;20457;-48
2022/01/22 01:51:28;;;;;;;10.57;7.30;;;3.50;99.90;;;;;;5045944;28;21006;-47
2022/01/22 01:54:02;;;;;;;17.93;8.07;;;3.40;99.90;;;;;;5059287;28;20775;-49
2022/01/22 01:59:14;;;;;;;15.07;9.30;;;3.50;99.90;;;;;;5059129;28;20499;-47
2022/01/22 02:01:40;;;;;;;11.80;7.30;;;3.40;99.90;;;;;;5057678;28;21385;-50
2022/01/22 02:04:08;;;;;;;16.97;8.83;;;3.50;99.90;;;;;;5062659;28;20450;-48
2022/01/22 02:06:34;;;;;;;23.57;8.90;;;3.50;99.90;;;;;;5047356;28;20429;-51
2022/01/22 02:09:01;;;;;;;13.33;8.00;;;3.40;99.90;;;;;;5063305;28;20453;-49
2022/01/22 02:11:28;;;;;;;20.00;7.77;;;3.40;99.90;;;;;;5061873;28;20260;-52
2022/01/22 02:14:07;;;;;;;18.93;9.53;;;3.40;99.90;;;;;;5063234;28;20426;-48
2022/01/22 02:24:56;;;;;;;21.73;9.20;;;3.50;99.90;;;;;;5062923;28;20483;-50
2022/01/22 02:27:21;;;;;;;17.10;9.57;;;3.50;99.90;;;;;;5059552;28;20510;-47
2022/01/22 02:29:47;;;;;;;16.03;8.30;;;3.50;99.90;;;;;;5051560;28;20993;-51
2022/01/22 02:35:27;;;;;;;19.40;9.40;;;3.50;99.90;;;;;;5058544;28;20472;-48
2022/01/22 02:37:59;;;;;;;11.73;8.73;;;3.50;99.90;;;;;;5062712;28;20418;-49
2022/01/22 02:40:33;;;;;;;12.73;7.53;;;3.50;99.90;;;;;;5058326;28;20525;-50
2022/01/22 02:43:00;;;;;;;20.93;9.20;;;3.50;99.90;;;;;;5063465;28;20440;-50
2022/01/22 02:45:26;;;;;;;19.17;9.40;;;3.50;99.90;;;;;;5062716;28;20512;-48
2022/01/22 02:47:52;;;;;;;16.77;9.67;;;3.50;99.90;;;;;;5058041;28;21158;-52
2022/01/22 02:50:18;;;;;;;16.17;9.27;;;3.50;99.90;;;;;;5063841;28;20206;-48
2022/01/22 02:52:45;;;;;;;18.83;8.33;;;3.50;99.90;;;;;;5044238;28;21012;-49
2022/01/22 02:55:12;;;;;;;17.07;9.50;;;3.50;99.90;;;;;;5045995;28;20459;-48
2022/01/22 02:57:41;;;;;;;16.90;9.67;;;3.50;99.90;;;;;;5044245;28;20749;-47
2022/01/22 03:00:14;;;;;;;16.87;10.43;;;3.50;99.90;;;;;;5057527;28;20442;-50
2022/01/22 03:02:39;;;;;;;17.43;9.43;;;3.60;99.90;;;;;;5063453;28;20443;-48
2022/01/22 03:05:07;;;;;;;13.07;8.27;;;3.60;99.90;;;;;;5057445;28;20817;-49
2022/01/22 03:07:33;;;;;;;15.50;9.83;;;3.60;99.90;;;;;;5064461;28;20238;-49
2022/01/22 03:10:02;;;;;;;17.93;8.90;;;3.60;99.90;;;;;;5059803;28;20839;-49
2022/01/22 03:15:31;;;;;;;16.60;9.40;;;3.60;99.90;;;;;;5058744;28;20437;-51
2022/01/22 03:18:04;;;;;;;12.03;7.60;;;3.60;99.90;;;;;;5060009;28;20417;-48
2022/01/22 03:20:45;;;;;;;16.70;9.57;;;3.60;99.90;;;;;;5058972;28;20984;-51
2022/01/22 03:27:19;;;;;;;18.50;9.73;;;3.50;99.90;;;;;;5060890;28;20447;-46
2022/01/22 03:28:54;;;;;;;20.93;9.60;;;3.70;99.90;;;;;;5060046;28;20487;-48
2022/01/22 03:31:20;;;;;;;15.60;9.93;;;3.60;99.90;;;;;;5060928;28;20464;-51
2022/01/22 03:33:46;;;;;;;17.40;10.30;;;3.60;99.90;;;;;;5058257;28;20441;-47
2022/01/22 03:36:12;;;;;;;15.23;9.10;;;3.50;99.90;;;;;;5050503;28;20544;-54
2022/01/22 03:38:38;;;;;;;14.77;9.20;;;3.60;99.90;;;;;;5057915;28;20182;-48
2022/01/22 03:41:04;;;;;;;18.90;10.37;;;3.60;99.90;;;;;;5059331;28;20723;-50
2022/01/22 03:43:29;;;;;;;17.80;10.80;;;3.50;99.90;;;;;;5060120;28;20448;-47
2022/01/22 03:45:55;;;;;;;18.50;9.90;;;3.60;99.90;;;;;;5057207;28;20483;-48
2022/01/22 03:48:21;;;;;;;14.47;9.37;;;3.60;99.90;;;;;;5062860;28;20465;-50
2022/01/22 03:50:49;;;;;;;16.47;8.80;;;3.60;99.90;;;;;;5057885;28;20215;-50
2022/01/22 03:53:15;;;;;;;15.87;9.50;;;3.60;99.90;;;;;;5063065;28;20187;-49
2022/01/22 03:58:26;;;;;;;16.77;9.67;;;3.70;99.90;;;;;;5058240;28;20927;-47
2022/01/22 04:01:03;;;;;;;18.40;10.33;;;3.70;99.90;;;;;;5063661;28;20977;-47
2022/01/22 04:03:33;;;;;;;18.70;8.60;;;3.70;99.90;;;;;;5059531;28;20532;-48
2022/01/22 04:08:59;;;;;;;18.30;9.60;;;3.70;99.90;;;;;;5019938;28;20456;-50
2022/01/22 04:11:25;;;;;;;19.87;11.37;;;3.80;99.90;;;;;;5061229;28;20461;-49
2022/01/22 04:13:53;;;;;;;22.67;11.63;;;3.80;99.90;;;;;;5064832;28;20503;-48
2022/01/22 04:16:20;;;;;;;15.47;9.60;;;3.80;99.90;;;;;;5049421;28;20421;-50
2022/01/22 04:27:10;;;;;;;15.10;10.67;;;4.00;99.90;;;;;;5061074;28;20459;-48
2022/01/22 04:29:35;;;;;;;17.83;9.50;;;4.00;99.90;;;;;;5066631;28;20539;-47
2022/01/22 04:32:01;;;;;;;17.80;9.80;;;4.00;99.90;;;;;;5044529;28;20559;-47
2022/01/22 04:34:27;;;;;;;20.00;10.27;;;4.00;99.90;;;;;;5065259;28;20183;-48
2022/01/22 04:36:52;;;;;;;16.40;8.57;;;3.90;99.90;;;;;;5047326;28;20453;-51
2022/01/22 04:39:21;;;;;;;19.07;11.20;;;4.00;99.90;;;;;;5052765;28;20213;-47
2022/01/22 04:41:47;;;;;;;21.03;10.40;;;3.90;99.90;;;;;;5064119;28;20903;-51
2022/01/22 04:44:13;;;;;;;14.40;9.40;;;3.90;99.90;;;;;;5059402;28;20477;-48
2022/01/22 04:46:59;;;;;;;16.17;8.97;;;4.00;99.90;;;;;;5065563;28;20179;-49
2022/01/22 04:57:19;;;;;;;20.30;9.70;;;3.90;99.90;;;;;;5061212;28;20450;-51
2022/01/22 04:59:45;;;;;;;16.20;8.50;;;3.90;99.90;;;;;;5062236;28;20901;-47
2022/01/22 05:02:11;;;;;;;10.27;7.70;;;3.90;99.90;;;;;;5061139;28;20195;-47
2022/01/22 05:04:36;;;;;;;14.97;9.30;;;3.90;99.90;;;;;;5059997;28;20425;-48
2022/01/22 05:07:03;;;;;;;20.40;9.03;;;3.90;99.90;;;;;;5063403;28;20668;-48
2022/01/22 05:09:28;;;;;;;11.63;8.50;;;3.90;99.90;;;;;;5058140;28;20210;-48
2022/01/22 05:11:54;;;;;;;11.60;8.30;;;3.90;99.90;;;;;;5063980;28;20778;-49
2022/01/22 05:14:20;;;;;;;17.20;8.43;;;3.90;99.90;;;;;;5061106;28;20262;-48
2022/01/22 05:16:46;;;;;;;13.03;8.47;;;4.00;99.90;;;;;;5064010;28;20418;-48
2022/01/22 05:19:37;;;;;;;14.40;8.67;;;4.00;99.90;;;;;;5061085;28;20481;-47
2022/01/22 05:22:09;;;;;;;21.00;9.87;;;4.00;99.90;;;;;;5059903;28;20240;-50
2022/01/22 05:24:39;;;;;;;17.97;8.47;;;4.00;99.90;;;;;;5055798;28;20432;-50
2022/01/22 05:37:34;;;;;;;15.43;8.77;;;4.00;99.90;;;;;;5058900;28;20444;-48
2022/01/22 05:40:00;;;;;;;13.83;8.20;;;4.00;99.90;;;;;;5062394;28;20438;-51
2022/01/22 05:42:26;;;;;;;16.67;8.77;;;4.00;99.90;;;;;;5059976;28;20191;-48
2022/01/22 05:44:51;;;;;;;20.50;9.40;;;4.00;99.90;;;;;;5062790;28;20187;-50
2022/01/22 05:47:22;;;;;;;18.27;9.47;;;4.00;99.90;;;;;;5059078;28;21068;-49
2022/01/22 05:49:48;;;;;;;14.77;9.20;;;4.00;99.90;;;;;;5064139;28;20210;-47
2022/01/22 05:52:19;;;;;;;15.00;9.20;;;3.90;99.90;;;;;;5061903;28;20985;-48
2022/01/22 06:00:14;;;;;;;12.77;8.57;;;4.00;99.90;;;;;;5062273;28;20891;-50
2022/01/22 06:02:39;;;;;;;17.00;9.67;;;4.00;99.90;;;;;;5062453;28;20483;-48
2022/01/22 06:05:05;;;;;;;17.33;11.43;;;4.00;99.90;;;;;;5060975;28;20441;-46
2022/01/22 06:07:31;;;;;;;18.60;8.70;;;4.00;99.90;;;;;;5059261;28;20806;-47
2022/01/22 06:15:09;;;;;;;16.47;10.30;;;4.00;99.90;;;;;;5061357;28;20438;-48
2022/01/22 06:17:35;;;;;;;17.43;12.53;;;4.00;99.90;;;;;;5061269;28;20448;-50
2022/01/22 06:20:01;;;;;;;22.93;10.27;;;4.00;99.90;;;;;;5057409;28;20981;-48
2022/01/22 06:22:26;;;;;;;15.57;10.00;;;4.00;99.90;;;;;;5064861;28;21609;-47
2022/01/22 06:24:52;;;;;;;19.00;11.17;;;4.10;99.90;;;;;;5060407;28;20270;-50
2022/01/22 06:27:17;;;;;;;17.73;11.50;;;4.10;99.90;;;;;;5061231;28;20191;-48
2022/01/22 06:29:43;;;;;;;21.20;11.00;;;4.20;99.90;;;;;;5061129;28;20253;-48
2022/01/22 06:32:09;;;;;;;16.20;9.90;;;4.20;99.90;;;;;;5061325;28;20207;-51
2022/01/22 06:34:34;;;;;;;15.80;9.67;;;4.20;99.90;;;;;;5063355;28;20279;-48
2022/01/22 06:37:00;;;;;;;17.20;11.63;;;4.20;99.90;;;;;;5059554;28;20194;-52
2022/01/22 06:39:26;;;;;;;18.67;11.37;;;4.10;99.90;;;;;;5060368;28;20628;-51
2022/01/22 06:41:53;;;;;;;18.80;11.23;;;4.10;99.90;;;;;;5061577;28;20175;-51
2022/01/22 06:44:22;;;;;;;26.33;11.83;;;4.10;99.90;;;;;;5058734;28;20425;-48
2022/01/22 06:46:51;;;;;;;19.30;10.80;;;4.20;99.90;;;;;;5064588;28;20817;-49
2022/01/22 06:49:17;;;;;;;18.50;10.33;;;4.20;99.90;;;;;;5057788;28;20493;-49
2022/01/22 06:51:43;;;;;;;22.43;13.90;;;4.20;99.90;;;;;;5064401;28;20508;-52
2022/01/22 06:54:10;;;;;;;20.10;12.03;;;4.20;99.90;;;;;;5061168;28;20187;-48
2022/01/22 06:56:37;;;;;;;22.13;12.47;;;4.20;99.90;;;;;;5062750;28;20432;-48
2022/01/22 06:59:03;;;;;;;14.87;9.77;;;4.20;99.90;;;;;;5057994;28;20840;-47
2022/01/22 07:01:29;;;;;;;25.13;10.83;;;4.30;99.90;;;;;;5060113;28;20432;-47
2022/01/22 07:03:55;;;;;;;19.20;12.80;;;4.30;99.90;;;;;;5061666;28;20458;-47
2022/01/22 07:06:22;;;;;;;25.60;13.30;;;4.30;99.90;;;;;;5059484;28;20429;-49
2022/01/22 07:08:48;;;;;;;18.10;12.20;;;4.30;99.90;;;;;;5063233;28;20457;-52
2022/01/22 07:11:15;;;;;;;19.23;11.70;;;4.30;99.90;;;;;;5060285;28;20453;-49
2022/01/22 07:13:40;;;;;;;25.73;13.30;;;4.30;99.90;;;;;;5059567;28;20260;-48
2022/01/22 07:16:07;;;;;;;24.10;12.50;;;4.40;99.90;;;;;;5050519;28;20869;-47
2022/01/22 07:18:32;;;;;;;22.97;12.20;;;4.40;99.90;;;;;;5056862;28;20438;-49
2022/01/22 07:20:58;;;;;;;22.87;13.00;;;4.40;99.90;;;;;;5060871;28;21350;-51
2022/01/22 07:26:04;;;;;;;25.43;12.40;;;4.30;99.90;;;;;;5055874;28;20183;-46
2022/01/22 07:28:30;;;;;;;17.27;11.10;;;4.40;99.90;;;;;;5062600;28;20469;-48
2022/01/22 07:30:56;;;;;;;25.90;13.33;;;4.40;99.90;;;;;;5058010;28;20953;-49
2022/01/22 07:33:22;;;;;;;20.73;12.83;;;4.40;99.90;;;;;;5061857;28;20184;-47
2022/01/22 07:35:48;;;;;;;26.30;13.30;;;4.40;99.90;;;;;;5060388;28;20630;-47
2022/01/22 07:38:14;;;;;;;23.23;13.27;;;4.40;99.90;;;;;;5058201;28;20184;-48
2022/01/22 07:40:39;;;;;;;18.27;11.57;;;4.50;99.90;;;;;;5058484;28;20818;-47
2022/01/22 07:43:05;;;;;;;18.60;13.43;;;4.50;99.90;;;;;;5058504;28;20641;-48
2022/01/22 07:45:31;;;;;;;18.83;12.60;;;4.50;99.90;;;;;;5065075;28;20648;-48
2022/01/22 07:47:56;;;;;;;24.90;13.60;;;4.50;99.90;;;;;;5058557;28;20195;-48
2022/01/22 07:50:22;;;;;;;25.27;13.77;;;4.50;99.90;;;;;;5061129;28;20206;-48
2022/01/22 07:52:48;;;;;;;23.70;14.20;;;4.50;99.90;;;;;;5060020;28;20639;-49
2022/01/22 07:55:16;;;;;;;22.33;12.27;;;4.60;99.90;;;;;;5052997;28;20633;-50
2022/01/22 07:57:42;;;;;;;31.43;13.10;;;4.60;99.90;;;;;;5050034;28;20195;-50
2022/01/22 08:00:08;;;;;;;21.23;13.10;;;4.60;99.90;;;;;;5059582;28;20458;-48
2022/01/22 08:02:34;;;;;;;27.77;13.87;;;4.60;99.90;;;;;;5061584;28;20522;-48
2022/01/22 08:05:00;;;;;;;22.63;13.03;;;4.50;99.90;;;;;;5056409;28;20516;-47
2022/01/22 08:07:25;;;;;;;21.30;13.60;;;4.50;99.90;;;;;;5060037;28;20739;-48
2022/01/22 08:09:51;;;;;;;18.47;12.97;;;4.50;99.90;;;;;;5061145;28;20436;-47
2022/01/22 08:12:17;;;;;;;29.07;13.50;;;4.50;99.90;;;;;;5053990;28;20583;-46
2022/01/22 08:14:43;;;;;;;19.77;11.90;;;4.50;99.90;;;;;;5062052;28;20254;-48
2022/01/22 08:17:10;;;;;;;19.17;13.33;;;4.50;99.90;;;;;;5058768;28;20544;-49
2022/01/22 08:19:36;;;;;;;25.20;13.53;;;4.50;99.90;;;;;;5062794;28;20707;-52
2022/01/22 08:22:02;;;;;;;16.63;10.77;;;4.50;99.90;;;;;;5060980;28;20474;-48
2022/01/22 08:24:28;;;;;;;21.43;12.93;;;4.50;99.90;;;;;;5041176;28;20808;-49
2022/01/22 08:27:20;;;;;;;16.73;11.93;;;4.50;99.90;;;;;;5060235;28;20179;-50
2022/01/22 08:29:46;;;;;;;21.07;12.30;;;4.50;99.90;;;;;;5059806;28;20449;-48
2022/01/22 08:37:28;;;;;;;15.90;10.97;;;4.60;99.90;;;;;;5058257;28;20436;-48
2022/01/22 08:39:53;;;;;;;17.43;11.90;;;4.50;99.90;;;;;;5059434;28;20445;-49
2022/01/22 08:42:21;;;;;;;25.03;11.63;;;4.60;99.90;;;;;;5058513;28;20187;-48
2022/01/22 08:44:47;;;;;;;18.70;10.87;;;4.60;99.90;;;;;;5061308;28;20199;-49
2022/01/22 08:47:13;;;;;;;25.30;11.70;;;4.60;99.90;;;;;;5061513;28;20479;-50
2022/01/22 08:49:39;;;;;;;23.90;12.53;;;4.60;99.90;;;;;;5064898;28;20827;-48
2022/01/22 08:52:14;;;;;;;20.13;10.87;;;4.60;99.90;;;;;;5063470;28;20473;-48
2022/01/22 08:54:41;;;;;;;16.13;10.87;;;4.60;99.90;;;;;;5061306;28;20181;-47
2022/01/22 08:57:07;;;;;;;23.03;11.60;;;4.60;99.90;;;;;;5050240;28;20429;-48
2022/01/22 08:59:32;;;;;;;16.93;10.40;;;4.50;99.90;;;;;;5063094;28;20457;-49
2022/01/22 09:01:59;;;;;;;21.33;12.10;;;4.50;99.90;;;;;;5059069;28;20493;-52
2022/01/22 09:04:25;;;;;;;16.13;10.40;;;4.50;99.90;;;;;;5062622;28;20241;-48
2022/01/22 09:06:51;;;;;;;23.73;11.83;;;4.60;99.90;;;;;;5059480;28;20429;-49
2022/01/22 09:09:16;;;;;;;22.63;11.87;;;4.60;99.90;;;;;;5063455;28;20446;-47
2022/01/22 09:11:44;;;;;;;18.53;10.33;;;4.50;99.90;;;;;;5065894;28;20548;-47
2022/01/22 09:14:16;;;;;;;17.00;9.57;;;4.60;99.90;;;;;;5060816;28;20191;-48
2022/01/22 09:16:42;;;;;;;20.10;11.00;;;4.60;99.90;;;;;;5066345;28;20419;-48
2022/01/22 09:19:11;;;;;;;25.83;11.30;;;4.70;99.90;;;;;;5063331;28;20445;-50
2022/01/22 09:21:42;;;;;;;21.13;10.70;;;4.70;99.90;;;;;;5063835;28;20438;-49
2022/01/22 09:24:09;;;;;;;17.50;10.70;;;4.70;99.90;;;;;;5063509;28;20432;-49
2022/01/22 09:26:35;;;;;;;21.30;10.80;;;4.70;99.90;;;;;;5058087;28;20426;-50
2022/01/22 09:29:02;;;;;;;22.00;9.50;;;4.80;99.90;;;;;;5060314;28;20461;-49
2022/01/22 09:31:29;;;;;;;30.67;12.00;;;4.70;99.90;;;;;;5062339;28;20470;-49
2022/01/22 09:33:57;;;;;;;20.77;10.67;;;4.70;99.90;;;;;;5041098;28;20441;-47
2022/01/22 09:36:23;;;;;;;19.00;10.77;;;4.70;99.90;;;;;;5062628;28;20410;-48
2022/01/22 09:38:49;;;;;;;18.57;9.93;;;4.70;99.90;;;;;;5058166;28;20461;-50
2022/01/22 09:41:15;;;;;;;18.70;10.80;;;4.70;99.90;;;;;;5062645;28;20882;-49
2022/01/22 09:43:41;;;;;;;15.80;11.43;;;4.70;99.90;;;;;;5062042;28;20413;-48
2022/01/22 09:46:10;;;;;;;21.27;10.30;;;4.70;99.90;;;;;;5057781;28;20438;-46
2022/01/22 09:48:44;;;;;;;21.00;10.00;;;4.70;99.90;;;;;;5064128;28;20199;-51
2022/01/22 09:51:11;;;;;;;11.73;8.83;;;4.70;99.90;;;;;;5060593;28;20429;-51
2022/01/22 09:53:38;;;;;;;16.10;10.23;;;4.80;99.90;;;;;;5061308;28;20438;-49
2022/01/22 09:56:04;;;;;;;15.20;10.03;;;4.80;99.90;;;;;;5059882;28;20815;-48
2022/01/22 09:58:30;;;;;;;15.57;9.50;;;4.80;99.90;;;;;;5059227;28;20425;-51
2022/01/22 10:01:18;;;;;;;18.27;10.87;;;4.80;99.90;;;;;;5049595;28;20190;-51
2022/01/22 10:03:44;;;;;;;18.60;10.23;;;4.80;99.90;;;;;;5060144;28;20776;-51
2022/01/22 10:06:17;;;;;;;20.40;10.67;;;4.80;99.90;;;;;;5049016;28;20429;-50
2022/01/22 10:08:43;;;;;;;19.93;11.07;;;4.80;99.90;;;;;;5060908;28;20241;-46
2022/01/22 10:11:28;;;;;;;20.23;10.03;;;4.80;99.90;;;;;;5060839;28;20461;-51
2022/01/22 10:13:59;;;;;;;23.40;11.17;;;4.80;99.90;;;;;;5064627;28;20828;-47
2022/01/22 10:16:35;;;;;;;16.23;10.40;;;4.80;99.90;;;;;;5065195;28;20452;-48
2022/01/22 10:19:19;;;;;;;18.80;10.50;;;4.90;99.90;;;;;;5056655;28;20537;-49
2022/01/22 10:21:56;;;;;;;19.97;10.00;;;4.90;99.90;;;;;;5060227;28;20430;-49
2022/01/22 10:24:31;;;;;;;19.00;10.53;;;4.90;99.90;;;;;;5061082;28;20425;-51
2022/01/22 10:30:05;;;;;;;15.57;11.47;;;4.90;99.90;;;;;;5058785;28;20461;-49
2022/01/22 10:35:38;;;;;;;18.07;10.20;;;4.90;99.90;;;;;;5036977;28;20501;-47
2022/01/22 10:38:04;;;;;;;17.70;8.53;;;4.90;99.90;;;;;;5040253;28;20819;-48
2022/01/22 10:40:33;;;;;;;17.90;9.93;;;4.90;99.90;;;;;;5051241;28;20431;-48
2022/01/22 10:43:33;;;;;;;17.93;10.00;;;4.90;99.90;;;;;;5062977;28;20438;-55
2022/01/22 10:46:33;;;;;;;21.90;11.10;;;4.90;99.90;;;;;;5062845;28;20480;-48
2022/01/22 10:49:04;;;;;;;24.87;11.40;;;4.90;99.90;;;;;;5059343;28;20501;-49
2022/01/22 10:51:31;;;;;;;17.20;11.23;;;4.90;99.90;;;;;;5059730;28;20503;-49
2022/01/22 10:54:02;;;;;;;17.10;10.20;;;4.90;99.90;;;;;;5050207;28;20759;-47
2022/01/22 10:56:31;;;;;;;14.60;10.20;;;4.90;99.90;;;;;;5059330;28;20469;-48
2022/01/22 10:59:02;;;;;;;16.43;10.07;;;4.90;99.90;;;;;;5058853;28;21001;-47
2022/01/22 11:01:31;;;;;;;15.70;9.80;;;4.90;99.90;;;;;;5059823;28;20421;-52
2022/01/22 11:04:37;;;;;;;18.90;11.40;;;5.00;99.90;;;;;;5059586;28;20945;-47
2022/01/22 11:07:07;;;;;;;17.60;9.67;;;5.00;99.90;;;;;;5049927;28;20626;-53
2022/01/22 11:09:34;;;;;;;15.87;10.80;;;5.00;99.90;;;;;;5061325;28;20462;-49
2022/01/22 11:12:02;;;;;;;21.17;12.30;;;5.00;99.90;;;;;;5055846;28;20963;-51
2022/01/22 11:14:30;;;;;;;21.63;13.43;;;5.00;99.90;;;;;;5061740;28;20410;-49
2022/01/22 11:16:56;;;;;;;14.53;9.67;;;5.00;99.90;;;;;;5056789;28;20480;-47
2022/01/22 11:19:32;;;;;;;21.20;11.03;;;5.00;99.90;;;;;;5045469;28;20437;-47
2022/01/22 11:22:04;;;;;;;19.57;11.37;;;5.10;99.90;;;;;;5060062;28;20940;-49
2022/01/22 11:24:35;;;;;;;17.90;10.60;;;5.00;99.90;;;;;;5056310;28;20424;-49
2022/01/22 11:27:03;;;;;;;16.17;9.80;;;5.10;99.90;;;;;;5064303;28;20438;-51
2022/01/22 11:29:36;;;;;;;19.90;12.03;;;5.10;99.90;;;;;;5057777;28;20814;-51
2022/01/22 11:32:06;;;;;;;22.80;10.70;;;5.10;99.90;;;;;;5057609;28;20472;-49
2022/01/22 11:34:35;;;;;;;21.00;11.30;;;5.10;99.90;;;;;;5058053;28;20433;-48
2022/01/22 11:37:12;;;;;;;24.20;12.97;;;5.10;99.90;;;;;;5055588;28;20978;-51
2022/01/22 11:39:37;;;;;;;21.30;11.60;;;5.10;99.90;;;;;;5061195;28;20899;-50
2022/01/22 11:42:04;;;;;;;20.63;12.63;;;5.10;99.90;;;;;;5056446;28;20511;-49
2022/01/22 11:44:50;;;;;;;27.03;11.60;;;5.10;99.90;;;;;;5048796;28;20179;-48
2022/01/22 11:47:22;;;;;;;18.03;10.87;;;5.10;99.90;;;;;;5045397;28;20836;-50
2022/01/22 11:50:04;;;;;;;18.23;11.00;;;5.20;99.90;;;;;;5058494;28;20443;-48
2022/01/22 11:52:33;;;;;;;19.10;11.20;;;5.20;99.90;;;;;;5060619;28;20568;-48
2022/01/22 11:55:01;;;;;;;22.10;11.37;;;5.20;99.90;;;;;;5057887;28;20781;-52
2022/01/22 11:57:31;;;;;;;18.77;12.00;;;5.30;99.90;;;;;;5058793;28;20418;-51
2022/01/22 12:00:24;;;;;;;18.43;11.47;;;5.30;99.90;;;;;;5059162;28;20675;-50
2022/01/22 12:03:08;;;;;;;29.37;12.73;;;5.30;99.90;;;;;;5049780;28;20441;-49
2022/01/22 12:05:54;;;;;;;20.50;10.20;;;5.30;99.90;;;;;;5059212;28;20465;-47
2022/01/22 12:08:21;;;;;;;21.23;11.80;;;5.30;99.90;;;;;;5051368;28;20860;-48
2022/01/22 12:14:28;;;;;;;25.20;10.70;;;5.30;99.90;;;;;;5042710;28;20826;-47
2022/01/22 12:16:41;;;;;;;21.03;12.47;;;5.40;99.90;;;;;;5059913;28;20899;-50
2022/01/22 12:19:49;;;;;;;21.17;12.57;;;5.30;99.90;;;;;;5060239;28;20819;-52
2022/01/22 12:22:34;;;;;;;19.83;12.93;;;5.30;99.90;;;;;;5060603;28;20993;-51
2022/01/22 12:25:03;;;;;;;18.30;12.17;;;5.30;99.90;;;;;;5061500;28;20443;-48
2022/01/22 12:27:41;;;;;;;17.07;12.40;;;5.40;99.90;;;;;;5061476;28;20433;-47
2022/01/22 12:30:07;;;;;;;23.63;13.30;;;5.40;99.90;;;;;;5064247;28;20503;-51
2022/01/22 12:32:44;;;;;;;19.30;12.20;;;5.40;99.90;;;;;;5064520;28;20503;-48
2022/01/22 12:35:16;;;;;;;21.90;14.40;;;5.30;99.90;;;;;;5058788;28;20187;-49
2022/01/22 12:37:47;;;;;;;19.77;12.90;;;5.40;99.90;;;;;;5055127;28;20417;-51
2022/01/22 12:40:23;;;;;;;19.60;11.70;;;5.50;99.90;;;;;;5059505;28;20490;-49
2022/01/22 12:43:10;;;;;;;23.77;14.10;;;5.50;99.90;;;;;;5063749;28;20444;-51
2022/01/22 12:45:38;;;;;;;22.70;13.60;;;5.60;99.90;;;;;;5065507;28;20455;-50
2022/01/22 12:48:04;;;;;;;26.87;12.73;;;5.60;99.90;;;;;;5058219;28;20480;-49
2022/01/22 12:50:33;;;;;;;21.33;12.20;;;5.60;99.90;;;;;;5063893;28;20502;-51
2022/01/22 12:53:06;;;;;;;18.90;13.03;;;5.50;99.90;;;;;;5064047;28;20484;-48
2022/01/22 12:56:00;;;;;;;19.67;13.90;;;5.50;99.90;;;;;;5057931;28;20422;-53
2022/01/22 12:58:37;;;;;;;22.07;13.13;;;5.50;99.90;;;;;;5062838;28;20417;-51
2022/01/22 13:01:24;;;;;;;19.07;12.70;;;5.70;99.90;;;;;;5059439;28;20444;-50
2022/01/22 13:03:53;;;;;;;22.23;13.00;;;5.60;99.90;;;;;;5058659;28;20521;-51
2022/01/22 13:06:22;;;;;;;27.93;12.90;;;5.70;99.90;;;;;;5064874;28;20448;-51
2022/01/22 13:08:48;;;;;;;21.03;13.20;;;5.70;99.90;;;;;;5058154;28;20534;-50
2022/01/22 13:11:18;;;;;;;27.73;14.60;;;5.70;99.90;;;;;;5066795;28;20860;-49
2022/01/22 13:13:48;;;;;;;26.20;13.60;;;5.70;99.90;;;;;;5061208;28;20643;-49
2022/01/22 13:16:17;;;;;;;18.10;12.17;;;5.70;99.90;;;;;;5046446;28;20985;-51
2022/01/22 13:18:49;;;;;;;24.07;13.20;;;5.80;99.90;;;;;;5064562;28;20451;-55
2022/01/22 13:21:16;;;;;;;18.50;13.33;;;5.80;99.90;;;;;;5061293;28;20960;-51
2022/01/22 13:23:43;;;;;;;25.90;14.00;;;5.70;99.90;;;;;;5069940;28;20450;-50
2022/01/22 13:26:09;;;;;;;21.87;13.70;;;5.80;99.90;;;;;;5062657;28;20444;-48
2022/01/22 13:28:37;;;;;;;21.40;14.00;;;5.80;99.90;;;;;;5060529;28;20484;-48
2022/01/22 13:31:15;;;;;;;22.70;13.77;;;5.80;99.90;;;;;;5063462;28;20482;-51
2022/01/22 13:34:10;;;;;;;20.57;15.20;;;5.80;99.90;;;;;;5044889;28;20536;-52
2022/01/22 13:36:56;;;;;;;17.10;12.30;;;5.90;99.90;;;;;;5062832;28;20536;-49
2022/01/22 13:40:28;;;;;;;24.13;12.33;;;6.00;99.90;;;;;;5065261;28;20445;-47
2022/01/22 13:45:19;;;;;;;23.33;12.30;;;6.00;99.90;;;;;;5061847;28;20491;-47
2022/01/22 13:47:53;;;;;;;19.43;11.83;;;6.00;99.90;;;;;;5051642;28;20764;-48
2022/01/22 13:50:20;;;;;;;16.93;11.77;;;5.90;99.90;;;;;;5060958;28;20461;-50
2022/01/22 13:52:48;;;;;;;22.07;12.60;;;6.00;99.90;;;;;;5065907;28;20498;-49
2022/01/22 13:55:15;;;;;;;21.37;12.70;;;6.00;99.90;;;;;;5060870;28;20409;-50
2022/01/22 13:57:44;;;;;;;21.13;12.90;;;6.00;99.90;;;;;;5062816;28;20418;-50
2022/01/22 14:00:15;;;;;;;21.60;14.50;;;6.00;99.90;;;;;;5062809;28;20488;-48
2022/01/22 14:03:05;;;;;;;19.87;13.20;;;5.90;99.90;;;;;;5058615;28;21022;-46
2022/01/22 14:05:31;;;;;;;19.43;13.23;;;5.90;99.90;;;;;;5061323;28;20797;-48
2022/01/22 14:08:08;;;;;;;19.00;11.53;;;5.90;99.90;;;;;;5060966;28;20437;-47
2022/01/22 14:10:35;;;;;;;21.80;12.83;;;5.80;99.90;;;;;;5063408;28;20961;-49
2022/01/22 14:13:10;;;;;;;19.33;12.10;;;5.80;99.90;;;;;;5046151;28;21001;-50
2022/01/22 14:15:43;;;;;;;19.43;12.17;;;5.90;99.90;;;;;;5057394;28;20433;-50
2022/01/22 14:18:20;;;;;;;20.57;11.53;;;5.90;99.90;;;;;;5063813;28;20424;-52
2022/01/22 14:21:12;;;;;;;20.00;12.17;;;5.90;99.90;;;;;;5062198;28;20417;-49
2022/01/22 14:23:39;;;;;;;21.80;12.10;;;5.90;99.90;;;;;;5060164;28;21046;-50
2022/01/22 14:26:33;;;;;;;28.80;13.17;;;5.80;99.90;;;;;;5060655;28;20513;-49
2022/01/22 14:29:07;;;;;;;22.20;13.87;;;5.90;99.90;;;;;;5061867;28;20580;-50
2022/01/22 14:31:51;;;;;;;19.30;11.83;;;5.80;99.90;;;;;;5060486;28;20457;-48
2022/01/22 14:34:36;;;;;;;18.40;12.83;;;5.90;99.90;;;;;;5059215;28;20463;-48
2022/01/22 14:37:04;;;;;;;19.47;12.00;;;6.00;99.90;;;;;;5060626;28;20437;-48